sensor_id;sensor_type;location;lat;lon;timestamp;P1;durP1;ratioP1;P2;durP2;ratioP2
52534;SDS011;38443;53.164;5.802;2023-05-23T00:02:03;26.65;;;9.90;;
52534;SDS011;38443;53.164;5.802;2023-05-23T00:04:32;23.80;;;10.50;;
52534;SDS011;38443;53.164;5.802;2023-05-23T00:06:57;29.95;;;9.60;;
52534;SDS011;38443;53.164;5.802;2023-05-23T00:09:23;18.33;;;9.02;;
52534;SDS011;38443;53.164;5.802;2023-05-23T00:11:48;18.58;;;10.02;;
52534;SDS011;38443;53.164;5.802;2023-05-23T00:14:13;22.35;;;9.98;;
52534;SDS011;38443;53.164;5.802;2023-05-23T00:16:40;17.23;;;8.75;;
52534;SDS011;38443;53.164;5.802;2023-05-23T00:19:08;20.90;;;11.18;;
52534;SDS011;38443;53.164;5.802;2023-05-23T00:21:34;17.27;;;8.98;;
52534;SDS011;38443;53.164;5.802;2023-05-23T00:23:59;18.90;;;9.77;;
52534;SDS011;38443;53.164;5.802;2023-05-23T00:26:26;23.33;;;10.00;;
52534;SDS011;38443;53.164;5.802;2023-05-23T00:28:53;26.45;;;9.70;;
52534;SDS011;38443;53.164;5.802;2023-05-23T00:31:20;21.77;;;9.13;;
52534;SDS011;38443;53.164;5.802;2023-05-23T00:33:46;22.38;;;10.02;;
52534;SDS011;38443;53.164;5.802;2023-05-23T00:36:11;23.20;;;9.10;;
52534;SDS011;38443;53.164;5.802;2023-05-23T00:38:37;16.05;;;8.23;;
52534;SDS011;38443;53.164;5.802;2023-05-23T00:41:03;21.13;;;9.63;;
52534;SDS011;38443;53.164;5.802;2023-05-23T00:43:29;19.63;;;7.45;;
52534;SDS011;38443;53.164;5.802;2023-05-23T00:45:55;22.60;;;9.57;;
52534;SDS011;38443;53.164;5.802;2023-05-23T00:48:21;19.42;;;8.45;;
52534;SDS011;38443;53.164;5.802;2023-05-23T00:50:47;19.17;;;8.80;;
52534;SDS011;38443;53.164;5.802;2023-05-23T00:53:12;18.65;;;8.43;;
52534;SDS011;38443;53.164;5.802;2023-05-23T00:55:38;17.60;;;8.15;;
52534;SDS011;38443;53.164;5.802;2023-05-23T00:58:03;17.48;;;8.05;;
52534;SDS011;38443;53.164;5.802;2023-05-23T01:00:29;20.17;;;7.95;;
52534;SDS011;38443;53.164;5.802;2023-05-23T01:02:58;20.67;;;7.75;;
52534;SDS011;38443;53.164;5.802;2023-05-23T01:05:23;15.45;;;8.27;;
52534;SDS011;38443;53.164;5.802;2023-05-23T01:07:49;17.23;;;7.63;;
52534;SDS011;38443;53.164;5.802;2023-05-23T01:10:20;17.48;;;7.53;;
52534;SDS011;38443;53.164;5.802;2023-05-23T01:15:39;16.98;;;8.80;;
52534;SDS011;38443;53.164;5.802;2023-05-23T01:18:14;16.92;;;7.43;;
52534;SDS011;38443;53.164;5.802;2023-05-23T01:20:53;15.13;;;6.53;;
52534;SDS011;38443;53.164;5.802;2023-05-23T01:25:47;12.80;;;6.10;;
52534;SDS011;38443;53.164;5.802;2023-05-23T01:28:36;19.23;;;8.85;;
52534;SDS011;38443;53.164;5.802;2023-05-23T01:31:05;18.17;;;8.00;;
52534;SDS011;38443;53.164;5.802;2023-05-23T01:33:34;14.18;;;6.75;;
52534;SDS011;38443;53.164;5.802;2023-05-23T01:36:01;18.05;;;7.88;;
52534;SDS011;38443;53.164;5.802;2023-05-23T01:38:27;14.52;;;6.63;;
52534;SDS011;38443;53.164;5.802;2023-05-23T01:40:53;25.35;;;8.40;;
52534;SDS011;38443;53.164;5.802;2023-05-23T01:43:18;20.67;;;8.10;;
52534;SDS011;38443;53.164;5.802;2023-05-23T01:45:44;14.38;;;6.10;;
52534;SDS011;38443;53.164;5.802;2023-05-23T01:48:10;14.57;;;6.55;;
52534;SDS011;38443;53.164;5.802;2023-05-23T01:50:38;17.92;;;6.68;;
52534;SDS011;38443;53.164;5.802;2023-05-23T01:53:05;16.55;;;7.22;;
52534;SDS011;38443;53.164;5.802;2023-05-23T01:55:32;20.02;;;7.60;;
52534;SDS011;38443;53.164;5.802;2023-05-23T01:57:58;18.00;;;7.72;;
52534;SDS011;38443;53.164;5.802;2023-05-23T02:00:24;17.10;;;7.20;;
52534;SDS011;38443;53.164;5.802;2023-05-23T02:02:50;17.42;;;6.93;;
52534;SDS011;38443;53.164;5.802;2023-05-23T02:05:15;14.40;;;6.05;;
52534;SDS011;38443;53.164;5.802;2023-05-23T02:07:41;18.73;;;6.82;;
52534;SDS011;38443;53.164;5.802;2023-05-23T02:10:06;16.35;;;6.10;;
52534;SDS011;38443;53.164;5.802;2023-05-23T02:12:32;16.60;;;6.53;;
52534;SDS011;38443;53.164;5.802;2023-05-23T02:14:58;19.00;;;6.10;;
52534;SDS011;38443;53.164;5.802;2023-05-23T02:17:23;19.67;;;6.63;;
52534;SDS011;38443;53.164;5.802;2023-05-23T02:19:49;20.65;;;6.47;;
52534;SDS011;38443;53.164;5.802;2023-05-23T02:22:15;17.45;;;6.47;;
52534;SDS011;38443;53.164;5.802;2023-05-23T02:24:40;19.05;;;6.90;;
52534;SDS011;38443;53.164;5.802;2023-05-23T02:27:06;15.35;;;6.65;;
52534;SDS011;38443;53.164;5.802;2023-05-23T02:29:31;16.15;;;6.03;;
52534;SDS011;38443;53.164;5.802;2023-05-23T02:31:57;19.27;;;6.60;;
52534;SDS011;38443;53.164;5.802;2023-05-23T02:34:22;17.08;;;6.15;;
52534;SDS011;38443;53.164;5.802;2023-05-23T02:36:48;16.55;;;5.88;;
52534;SDS011;38443;53.164;5.802;2023-05-23T02:39:13;14.40;;;5.72;;
52534;SDS011;38443;53.164;5.802;2023-05-23T02:41:38;16.02;;;5.75;;
52534;SDS011;38443;53.164;5.802;2023-05-23T02:44:04;15.00;;;6.20;;
52534;SDS011;38443;53.164;5.802;2023-05-23T02:46:29;19.67;;;5.70;;
52534;SDS011;38443;53.164;5.802;2023-05-23T02:48:54;13.75;;;5.93;;
52534;SDS011;38443;53.164;5.802;2023-05-23T02:51:20;14.43;;;5.25;;
52534;SDS011;38443;53.164;5.802;2023-05-23T02:53:45;17.77;;;5.38;;
52534;SDS011;38443;53.164;5.802;2023-05-23T02:56:11;13.52;;;5.40;;
52534;SDS011;38443;53.164;5.802;2023-05-23T02:58:37;13.57;;;5.13;;
52534;SDS011;38443;53.164;5.802;2023-05-23T03:01:04;13.18;;;5.47;;
52534;SDS011;38443;53.164;5.802;2023-05-23T03:03:29;11.60;;;4.97;;
52534;SDS011;38443;53.164;5.802;2023-05-23T03:05:58;13.38;;;5.32;;
52534;SDS011;38443;53.164;5.802;2023-05-23T03:08:23;10.52;;;4.47;;
52534;SDS011;38443;53.164;5.802;2023-05-23T03:10:49;9.50;;;4.70;;
52534;SDS011;38443;53.164;5.802;2023-05-23T03:13:14;14.40;;;5.82;;
52534;SDS011;38443;53.164;5.802;2023-05-23T03:15:40;10.95;;;4.05;;
52534;SDS011;38443;53.164;5.802;2023-05-23T03:18:05;9.95;;;4.57;;
52534;SDS011;38443;53.164;5.802;2023-05-23T03:20:31;11.70;;;5.32;;
52534;SDS011;38443;53.164;5.802;2023-05-23T03:22:56;10.77;;;4.75;;
52534;SDS011;38443;53.164;5.802;2023-05-23T03:25:21;15.85;;;4.95;;
52534;SDS011;38443;53.164;5.802;2023-05-23T03:27:47;13.48;;;4.90;;
52534;SDS011;38443;53.164;5.802;2023-05-23T03:30:12;12.52;;;4.35;;
52534;SDS011;38443;53.164;5.802;2023-05-23T03:32:37;13.30;;;5.55;;
52534;SDS011;38443;53.164;5.802;2023-05-23T03:35:03;14.48;;;4.93;;
52534;SDS011;38443;53.164;5.802;2023-05-23T03:37:28;12.80;;;6.68;;
52534;SDS011;38443;53.164;5.802;2023-05-23T03:39:54;14.40;;;4.72;;
52534;SDS011;38443;53.164;5.802;2023-05-23T03:42:19;14.23;;;4.88;;
52534;SDS011;38443;53.164;5.802;2023-05-23T03:44:44;10.85;;;5.00;;
52534;SDS011;38443;53.164;5.802;2023-05-23T03:47:10;11.50;;;3.78;;
52534;SDS011;38443;53.164;5.802;2023-05-23T03:49:35;11.85;;;4.82;;
52534;SDS011;38443;53.164;5.802;2023-05-23T03:52:00;11.50;;;4.35;;
52534;SDS011;38443;53.164;5.802;2023-05-23T03:54:26;15.27;;;4.80;;
52534;SDS011;38443;53.164;5.802;2023-05-23T03:56:51;9.88;;;4.30;;
52534;SDS011;38443;53.164;5.802;2023-05-23T03:59:17;14.18;;;4.05;;
52534;SDS011;38443;53.164;5.802;2023-05-23T04:01:42;8.57;;;4.15;;
52534;SDS011;38443;53.164;5.802;2023-05-23T04:04:07;11.07;;;4.45;;
52534;SDS011;38443;53.164;5.802;2023-05-23T04:06:33;10.27;;;3.40;;
52534;SDS011;38443;53.164;5.802;2023-05-23T04:08:58;15.15;;;5.88;;
52534;SDS011;38443;53.164;5.802;2023-05-23T04:11:24;10.93;;;4.63;;
52534;SDS011;38443;53.164;5.802;2023-05-23T04:13:49;11.30;;;4.32;;
52534;SDS011;38443;53.164;5.802;2023-05-23T04:16:16;11.95;;;4.32;;
52534;SDS011;38443;53.164;5.802;2023-05-23T04:18:41;8.65;;;4.20;;
52534;SDS011;38443;53.164;5.802;2023-05-23T04:21:07;11.15;;;4.25;;
52534;SDS011;38443;53.164;5.802;2023-05-23T04:23:32;10.85;;;4.30;;
52534;SDS011;38443;53.164;5.802;2023-05-23T04:25:58;10.60;;;4.47;;
52534;SDS011;38443;53.164;5.802;2023-05-23T04:28:25;9.73;;;4.93;;
52534;SDS011;38443;53.164;5.802;2023-05-23T04:30:51;12.73;;;5.18;;
52534;SDS011;38443;53.164;5.802;2023-05-23T04:33:17;12.57;;;4.45;;
52534;SDS011;38443;53.164;5.802;2023-05-23T04:38:08;11.02;;;4.65;;
52534;SDS011;38443;53.164;5.802;2023-05-23T04:40:34;11.88;;;4.45;;
52534;SDS011;38443;53.164;5.802;2023-05-23T04:42:59;9.50;;;4.93;;
52534;SDS011;38443;53.164;5.802;2023-05-23T04:45:24;10.43;;;4.97;;
52534;SDS011;38443;53.164;5.802;2023-05-23T04:47:50;17.98;;;6.32;;
52534;SDS011;38443;53.164;5.802;2023-05-23T04:50:18;17.63;;;6.40;;
52534;SDS011;38443;53.164;5.802;2023-05-23T04:52:46;12.30;;;5.40;;
52534;SDS011;38443;53.164;5.802;2023-05-23T04:57:36;10.67;;;4.47;;
52534;SDS011;38443;53.164;5.802;2023-05-23T05:00:02;17.83;;;5.07;;
52534;SDS011;38443;53.164;5.802;2023-05-23T05:02:34;12.45;;;6.28;;
52534;SDS011;38443;53.164;5.802;2023-05-23T05:05:01;11.50;;;3.72;;
52534;SDS011;38443;53.164;5.802;2023-05-23T05:07:26;10.77;;;4.80;;
52534;SDS011;38443;53.164;5.802;2023-05-23T05:09:53;11.20;;;4.95;;
52534;SDS011;38443;53.164;5.802;2023-05-23T05:14:43;6.80;;;3.40;;
52534;SDS011;38443;53.164;5.802;2023-05-23T05:19:34;12.30;;;4.50;;
52534;SDS011;38443;53.164;5.802;2023-05-23T05:24:25;10.13;;;3.40;;
52534;SDS011;38443;53.164;5.802;2023-05-23T05:26:51;6.65;;;3.15;;
52534;SDS011;38443;53.164;5.802;2023-05-23T05:31:42;9.93;;;3.72;;
52534;SDS011;38443;53.164;5.802;2023-05-23T05:34:09;13.80;;;4.00;;
52534;SDS011;38443;53.164;5.802;2023-05-23T05:39:00;13.32;;;4.53;;
52534;SDS011;38443;53.164;5.802;2023-05-23T05:43:51;9.50;;;3.88;;
52534;SDS011;38443;53.164;5.802;2023-05-23T05:46:16;10.70;;;4.53;;
52534;SDS011;38443;53.164;5.802;2023-05-23T05:48:42;11.73;;;4.07;;
52534;SDS011;38443;53.164;5.802;2023-05-23T05:51:07;11.77;;;4.05;;
52534;SDS011;38443;53.164;5.802;2023-05-23T05:53:33;14.57;;;4.43;;
52534;SDS011;38443;53.164;5.802;2023-05-23T05:58:23;13.70;;;3.87;;
52534;SDS011;38443;53.164;5.802;2023-05-23T06:00:48;15.00;;;3.60;;
52534;SDS011;38443;53.164;5.802;2023-05-23T06:03:14;9.05;;;3.70;;
52534;SDS011;38443;53.164;5.802;2023-05-23T06:05:39;19.67;;;4.95;;
52534;SDS011;38443;53.164;5.802;2023-05-23T06:10:31;14.88;;;4.07;;
52534;SDS011;38443;53.164;5.802;2023-05-23T06:12:56;11.13;;;4.13;;
52534;SDS011;38443;53.164;5.802;2023-05-23T06:15:22;10.63;;;3.70;;
52534;SDS011;38443;53.164;5.802;2023-05-23T06:17:48;8.80;;;2.80;;
52534;SDS011;38443;53.164;5.802;2023-05-23T06:22:38;9.65;;;3.75;;
52534;SDS011;38443;53.164;5.802;2023-05-23T06:25:04;10.73;;;3.22;;
52534;SDS011;38443;53.164;5.802;2023-05-23T06:27:30;10.15;;;3.22;;
52534;SDS011;38443;53.164;5.802;2023-05-23T06:29:55;15.13;;;4.13;;
52534;SDS011;38443;53.164;5.802;2023-05-23T06:34:46;12.73;;;3.73;;
52534;SDS011;38443;53.164;5.802;2023-05-23T06:39:36;15.52;;;3.33;;
52534;SDS011;38443;53.164;5.802;2023-05-23T06:42:02;10.70;;;3.83;;
52534;SDS011;38443;53.164;5.802;2023-05-23T06:44:28;15.10;;;3.70;;
52534;SDS011;38443;53.164;5.802;2023-05-23T06:46:53;12.38;;;3.55;;
52534;SDS011;38443;53.164;5.802;2023-05-23T06:49:21;10.57;;;2.90;;
52534;SDS011;38443;53.164;5.802;2023-05-23T06:51:47;11.77;;;3.00;;
52534;SDS011;38443;53.164;5.802;2023-05-23T06:54:13;11.57;;;4.00;;
52534;SDS011;38443;53.164;5.802;2023-05-23T06:56:38;12.55;;;3.53;;
52534;SDS011;38443;53.164;5.802;2023-05-23T06:59:04;15.02;;;3.90;;
52534;SDS011;38443;53.164;5.802;2023-05-23T07:01:29;6.93;;;3.38;;
52534;SDS011;38443;53.164;5.802;2023-05-23T07:03:54;9.20;;;3.63;;
52534;SDS011;38443;53.164;5.802;2023-05-23T07:06:20;14.90;;;3.90;;
52534;SDS011;38443;53.164;5.802;2023-05-23T07:08:46;18.50;;;4.07;;
52534;SDS011;38443;53.164;5.802;2023-05-23T07:11:11;12.77;;;3.38;;
52534;SDS011;38443;53.164;5.802;2023-05-23T07:13:36;12.13;;;3.30;;
52534;SDS011;38443;53.164;5.802;2023-05-23T07:16:02;14.88;;;3.83;;
52534;SDS011;38443;53.164;5.802;2023-05-23T07:18:27;15.02;;;3.70;;
52534;SDS011;38443;53.164;5.802;2023-05-23T07:20:52;9.20;;;3.50;;
52534;SDS011;38443;53.164;5.802;2023-05-23T07:23:18;10.85;;;3.45;;
52534;SDS011;38443;53.164;5.802;2023-05-23T07:25:43;10.95;;;4.32;;
52534;SDS011;38443;53.164;5.802;2023-05-23T07:28:10;8.40;;;4.15;;
52534;SDS011;38443;53.164;5.802;2023-05-23T07:30:35;11.48;;;3.60;;
52534;SDS011;38443;53.164;5.802;2023-05-23T07:33:00;11.60;;;4.53;;
52534;SDS011;38443;53.164;5.802;2023-05-23T07:35:26;12.00;;;3.08;;
52534;SDS011;38443;53.164;5.802;2023-05-23T07:37:51;16.98;;;4.18;;
52534;SDS011;38443;53.164;5.802;2023-05-23T07:40:18;9.75;;;3.35;;
52534;SDS011;38443;53.164;5.802;2023-05-23T07:42:43;12.73;;;3.75;;
52534;SDS011;38443;53.164;5.802;2023-05-23T07:45:09;7.78;;;3.70;;
52534;SDS011;38443;53.164;5.802;2023-05-23T07:47:35;7.82;;;3.03;;
52534;SDS011;38443;53.164;5.802;2023-05-23T07:50:00;10.65;;;3.67;;
52534;SDS011;38443;53.164;5.802;2023-05-23T07:52:27;10.13;;;3.17;;
52534;SDS011;38443;53.164;5.802;2023-05-23T07:54:54;10.77;;;3.22;;
52534;SDS011;38443;53.164;5.802;2023-05-23T07:57:20;11.40;;;3.38;;
52534;SDS011;38443;53.164;5.802;2023-05-23T07:59:45;15.63;;;3.47;;
52534;SDS011;38443;53.164;5.802;2023-05-23T08:02:11;14.57;;;3.70;;
52534;SDS011;38443;53.164;5.802;2023-05-23T08:04:36;7.63;;;3.05;;
52534;SDS011;38443;53.164;5.802;2023-05-23T08:07:01;11.95;;;3.38;;
52534;SDS011;38443;53.164;5.802;2023-05-23T08:09:29;8.27;;;2.97;;
52534;SDS011;38443;53.164;5.802;2023-05-23T08:11:54;13.65;;;3.67;;
52534;SDS011;38443;53.164;5.802;2023-05-23T08:14:20;14.57;;;3.80;;
52534;SDS011;38443;53.164;5.802;2023-05-23T08:16:46;10.77;;;3.22;;
52534;SDS011;38443;53.164;5.802;2023-05-23T08:19:12;11.85;;;4.55;;
52534;SDS011;38443;53.164;5.802;2023-05-23T08:21:37;13.70;;;3.78;;
52534;SDS011;38443;53.164;5.802;2023-05-23T08:24:02;10.25;;;4.60;;
52534;SDS011;38443;53.164;5.802;2023-05-23T08:26:28;10.85;;;4.38;;
52534;SDS011;38443;53.164;5.802;2023-05-23T08:28:58;12.20;;;4.65;;
52534;SDS011;38443;53.164;5.802;2023-05-23T08:31:30;13.75;;;3.33;;
52534;SDS011;38443;53.164;5.802;2023-05-23T08:33:56;18.17;;;5.57;;
52534;SDS011;38443;53.164;5.802;2023-05-23T08:36:23;12.20;;;4.80;;
52534;SDS011;38443;53.164;5.802;2023-05-23T08:38:48;10.25;;;3.30;;
52534;SDS011;38443;53.164;5.802;2023-05-23T08:41:17;14.68;;;3.80;;
52534;SDS011;38443;53.164;5.802;2023-05-23T08:43:44;8.48;;;3.38;;
52534;SDS011;38443;53.164;5.802;2023-05-23T08:46:10;10.65;;;3.70;;
52534;SDS011;38443;53.164;5.802;2023-05-23T08:48:37;11.38;;;3.65;;
52534;SDS011;38443;53.164;5.802;2023-05-23T08:51:02;14.32;;;3.30;;
52534;SDS011;38443;53.164;5.802;2023-05-23T08:53:28;10.50;;;3.13;;
52534;SDS011;38443;53.164;5.802;2023-05-23T08:55:56;9.15;;;3.55;;
52534;SDS011;38443;53.164;5.802;2023-05-23T08:58:26;8.90;;;2.95;;
52534;SDS011;38443;53.164;5.802;2023-05-23T09:00:55;14.23;;;4.10;;
52534;SDS011;38443;53.164;5.802;2023-05-23T09:03:21;8.80;;;3.42;;
52534;SDS011;38443;53.164;5.802;2023-05-23T09:05:47;11.13;;;3.28;;
52534;SDS011;38443;53.164;5.802;2023-05-23T09:08:13;12.30;;;3.35;;
52534;SDS011;38443;53.164;5.802;2023-05-23T09:10:40;9.98;;;3.60;;
52534;SDS011;38443;53.164;5.802;2023-05-23T09:13:06;9.50;;;3.72;;
52534;SDS011;38443;53.164;5.802;2023-05-23T09:15:31;11.57;;;4.05;;
52534;SDS011;38443;53.164;5.802;2023-05-23T09:18:00;12.88;;;3.50;;
52534;SDS011;38443;53.164;5.802;2023-05-23T09:20:26;11.55;;;3.80;;
52534;SDS011;38443;53.164;5.802;2023-05-23T09:22:53;14.57;;;4.18;;
52534;SDS011;38443;53.164;5.802;2023-05-23T09:25:19;13.80;;;3.88;;
52534;SDS011;38443;53.164;5.802;2023-05-23T09:27:44;10.57;;;3.35;;
52534;SDS011;38443;53.164;5.802;2023-05-23T09:30:10;11.80;;;3.45;;
52534;SDS011;38443;53.164;5.802;2023-05-23T09:32:36;14.57;;;3.70;;
52534;SDS011;38443;53.164;5.802;2023-05-23T09:35:03;9.90;;;3.40;;
52534;SDS011;38443;53.164;5.802;2023-05-23T09:37:30;8.63;;;3.25;;
52534;SDS011;38443;53.164;5.802;2023-05-23T09:40:06;11.88;;;3.40;;
52534;SDS011;38443;53.164;5.802;2023-05-23T09:42:40;6.97;;;3.35;;
52534;SDS011;38443;53.164;5.802;2023-05-23T09:45:08;10.77;;;3.17;;
52534;SDS011;38443;53.164;5.802;2023-05-23T09:47:33;8.05;;;2.70;;
52534;SDS011;38443;53.164;5.802;2023-05-23T09:49:58;13.73;;;3.20;;
52534;SDS011;38443;53.164;5.802;2023-05-23T09:52:24;12.43;;;3.13;;
52534;SDS011;38443;53.164;5.802;2023-05-23T09:54:50;8.57;;;3.40;;
52534;SDS011;38443;53.164;5.802;2023-05-23T09:57:15;7.72;;;2.70;;
52534;SDS011;38443;53.164;5.802;2023-05-23T09:59:44;8.30;;;3.00;;
52534;SDS011;38443;53.164;5.802;2023-05-23T10:02:16;13.40;;;3.08;;
52534;SDS011;38443;53.164;5.802;2023-05-23T10:05:03;14.75;;;3.92;;
52534;SDS011;38443;53.164;5.802;2023-05-23T10:07:32;10.15;;;3.42;;
52534;SDS011;38443;53.164;5.802;2023-05-23T10:10:00;12.45;;;3.15;;
52534;SDS011;38443;53.164;5.802;2023-05-23T10:12:35;10.48;;;3.33;;
52534;SDS011;38443;53.164;5.802;2023-05-23T10:15:03;11.82;;;3.10;;
52534;SDS011;38443;53.164;5.802;2023-05-23T10:20:10;10.52;;;3.33;;
52534;SDS011;38443;53.164;5.802;2023-05-23T10:22:36;11.15;;;3.38;;
52534;SDS011;38443;53.164;5.802;2023-05-23T10:25:02;14.38;;;3.42;;
52534;SDS011;38443;53.164;5.802;2023-05-23T10:27:38;9.07;;;2.78;;
52534;SDS011;38443;53.164;5.802;2023-05-23T10:30:07;8.73;;;3.50;;
52534;SDS011;38443;53.164;5.802;2023-05-23T10:32:33;12.23;;;3.17;;
52534;SDS011;38443;53.164;5.802;2023-05-23T10:35:15;9.00;;;3.05;;
52534;SDS011;38443;53.164;5.802;2023-05-23T10:45:44;10.25;;;2.95;;
52534;SDS011;38443;53.164;5.802;2023-05-23T10:53:29;11.40;;;3.00;;
52534;SDS011;38443;53.164;5.802;2023-05-23T10:55:55;19.90;;;3.97;;
52534;SDS011;38443;53.164;5.802;2023-05-23T10:58:21;14.75;;;3.78;;
52534;SDS011;38443;53.164;5.802;2023-05-23T11:00:53;11.57;;;3.65;;
52534;SDS011;38443;53.164;5.802;2023-05-23T11:06:08;12.30;;;3.80;;
52534;SDS011;38443;53.164;5.802;2023-05-23T11:09:00;8.43;;;2.90;;
52534;SDS011;38443;53.164;5.802;2023-05-23T11:15:18;10.80;;;3.70;;
52534;SDS011;38443;53.164;5.802;2023-05-23T11:22:30;10.38;;;2.60;;
52534;SDS011;38443;53.164;5.802;2023-05-23T11:24:56;13.93;;;3.35;;
52534;SDS011;38443;53.164;5.802;2023-05-23T11:27:30;14.27;;;3.67;;
52534;SDS011;38443;53.164;5.802;2023-05-23T11:29:59;11.38;;;3.72;;
52534;SDS011;38443;53.164;5.802;2023-05-23T11:32:29;12.45;;;3.40;;
52534;SDS011;38443;53.164;5.802;2023-05-23T11:35:02;8.68;;;3.05;;
52534;SDS011;38443;53.164;5.802;2023-05-23T11:37:29;9.05;;;3.03;;
52534;SDS011;38443;53.164;5.802;2023-05-23T11:39:55;5.47;;;2.80;;
52534;SDS011;38443;53.164;5.802;2023-05-23T11:42:21;8.88;;;3.00;;
52534;SDS011;38443;53.164;5.802;2023-05-23T11:44:50;11.40;;;3.45;;
52534;SDS011;38443;53.164;5.802;2023-05-23T11:47:16;12.93;;;3.53;;
52534;SDS011;38443;53.164;5.802;2023-05-23T11:49:43;5.80;;;2.80;;
52534;SDS011;38443;53.164;5.802;2023-05-23T11:52:10;12.00;;;3.33;;
52534;SDS011;38443;53.164;5.802;2023-05-23T11:54:36;9.43;;;2.97;;
52534;SDS011;38443;53.164;5.802;2023-05-23T11:57:01;7.50;;;2.95;;
52534;SDS011;38443;53.164;5.802;2023-05-23T11:59:27;7.47;;;2.75;;
52534;SDS011;38443;53.164;5.802;2023-05-23T12:01:53;11.70;;;3.00;;
52534;SDS011;38443;53.164;5.802;2023-05-23T12:04:19;8.95;;;2.67;;
52534;SDS011;38443;53.164;5.802;2023-05-23T12:06:46;8.80;;;2.60;;
52534;SDS011;38443;53.164;5.802;2023-05-23T12:09:12;8.23;;;2.72;;
52534;SDS011;38443;53.164;5.802;2023-05-23T12:11:38;10.73;;;3.22;;
52534;SDS011;38443;53.164;5.802;2023-05-23T12:14:05;7.05;;;3.65;;
52534;SDS011;38443;53.164;5.802;2023-05-23T12:16:32;8.63;;;3.67;;
52534;SDS011;38443;53.164;5.802;2023-05-23T12:18:58;9.05;;;3.03;;
52534;SDS011;38443;53.164;5.802;2023-05-23T12:21:25;8.27;;;3.13;;
52534;SDS011;38443;53.164;5.802;2023-05-23T12:24:10;7.60;;;2.50;;
52534;SDS011;38443;53.164;5.802;2023-05-23T12:26:44;12.25;;;3.25;;
52534;SDS011;38443;53.164;5.802;2023-05-23T12:29:13;10.15;;;2.88;;
52534;SDS011;38443;53.164;5.802;2023-05-23T12:31:38;13.65;;;2.53;;
52534;SDS011;38443;53.164;5.802;2023-05-23T12:34:04;12.40;;;3.65;;
52534;SDS011;38443;53.164;5.802;2023-05-23T12:36:29;7.38;;;2.72;;
52534;SDS011;38443;53.164;5.802;2023-05-23T12:39:01;12.23;;;3.00;;
52534;SDS011;38443;53.164;5.802;2023-05-23T12:41:27;5.60;;;2.72;;
52534;SDS011;38443;53.164;5.802;2023-05-23T12:43:53;6.88;;;2.92;;
52534;SDS011;38443;53.164;5.802;2023-05-23T12:46:20;6.60;;;2.42;;
52534;SDS011;38443;53.164;5.802;2023-05-23T12:48:46;6.03;;;2.35;;
52534;SDS011;38443;53.164;5.802;2023-05-23T12:51:11;6.18;;;2.90;;
52534;SDS011;38443;53.164;5.802;2023-05-23T12:53:37;9.77;;;2.40;;
52534;SDS011;38443;53.164;5.802;2023-05-23T12:56:03;6.90;;;2.90;;
52534;SDS011;38443;53.164;5.802;2023-05-23T12:58:28;6.70;;;2.90;;
52534;SDS011;38443;53.164;5.802;2023-05-23T13:00:54;9.40;;;3.10;;
52534;SDS011;38443;53.164;5.802;2023-05-23T13:03:20;10.82;;;4.03;;
52534;SDS011;38443;53.164;5.802;2023-05-23T13:05:45;14.13;;;2.85;;
52534;SDS011;38443;53.164;5.802;2023-05-23T13:08:11;10.73;;;4.35;;
52534;SDS011;38443;53.164;5.802;2023-05-23T13:10:36;7.18;;;2.80;;
52534;SDS011;38443;53.164;5.802;2023-05-23T13:13:02;9.32;;;3.22;;
52534;SDS011;38443;53.164;5.802;2023-05-23T13:15:28;5.97;;;2.45;;
52534;SDS011;38443;53.164;5.802;2023-05-23T13:17:53;7.85;;;2.83;;
52534;SDS011;38443;53.164;5.802;2023-05-23T13:20:19;11.45;;;3.78;;
52534;SDS011;38443;53.164;5.802;2023-05-23T13:22:44;7.22;;;3.00;;
52534;SDS011;38443;53.164;5.802;2023-05-23T13:25:09;7.03;;;2.50;;
52534;SDS011;38443;53.164;5.802;2023-05-23T13:27:35;7.32;;;3.00;;
52534;SDS011;38443;53.164;5.802;2023-05-23T13:30:00;7.70;;;3.17;;
52534;SDS011;38443;53.164;5.802;2023-05-23T13:32:26;10.35;;;3.30;;
52534;SDS011;38443;53.164;5.802;2023-05-23T13:34:51;6.30;;;2.47;;
52534;SDS011;38443;53.164;5.802;2023-05-23T13:37:17;9.98;;;3.10;;
52534;SDS011;38443;53.164;5.802;2023-05-23T13:39:42;9.88;;;3.13;;
52534;SDS011;38443;53.164;5.802;2023-05-23T13:42:07;10.82;;;3.22;;
52534;SDS011;38443;53.164;5.802;2023-05-23T13:44:33;11.10;;;3.55;;
52534;SDS011;38443;53.164;5.802;2023-05-23T13:47:08;10.48;;;2.35;;
52534;SDS011;38443;53.164;5.802;2023-05-23T13:49:35;8.20;;;2.83;;
52534;SDS011;38443;53.164;5.802;2023-05-23T13:52:00;10.65;;;3.33;;
52534;SDS011;38443;53.164;5.802;2023-05-23T13:54:26;5.10;;;2.55;;
52534;SDS011;38443;53.164;5.802;2023-05-23T13:56:51;9.85;;;4.57;;
52534;SDS011;38443;53.164;5.802;2023-05-23T13:59:16;16.95;;;8.05;;
52534;SDS011;38443;53.164;5.802;2023-05-23T14:01:45;10.05;;;2.97;;
52534;SDS011;38443;53.164;5.802;2023-05-23T14:04:12;4.53;;;2.15;;
52534;SDS011;38443;53.164;5.802;2023-05-23T14:06:38;5.80;;;1.88;;
52534;SDS011;38443;53.164;5.802;2023-05-23T14:09:03;7.97;;;2.22;;
52534;SDS011;38443;53.164;5.802;2023-05-23T14:11:31;4.88;;;2.67;;
52534;SDS011;38443;53.164;5.802;2023-05-23T14:13:57;7.75;;;2.58;;
52534;SDS011;38443;53.164;5.802;2023-05-23T14:16:22;9.63;;;2.80;;
52534;SDS011;38443;53.164;5.802;2023-05-23T14:18:48;6.15;;;2.42;;
52534;SDS011;38443;53.164;5.802;2023-05-23T14:21:14;7.95;;;2.47;;
52534;SDS011;38443;53.164;5.802;2023-05-23T14:23:39;9.20;;;2.10;;
52534;SDS011;38443;53.164;5.802;2023-05-23T14:26:04;7.30;;;2.50;;
52534;SDS011;38443;53.164;5.802;2023-05-23T14:28:30;7.30;;;2.10;;
52534;SDS011;38443;53.164;5.802;2023-05-23T14:30:55;8.15;;;2.55;;
52534;SDS011;38443;53.164;5.802;2023-05-23T14:33:24;7.75;;;2.70;;
52534;SDS011;38443;53.164;5.802;2023-05-23T14:35:50;10.50;;;2.88;;
52534;SDS011;38443;53.164;5.802;2023-05-23T14:38:16;8.43;;;2.80;;
52534;SDS011;38443;53.164;5.802;2023-05-23T14:40:42;6.95;;;2.65;;
52534;SDS011;38443;53.164;5.802;2023-05-23T14:43:07;6.32;;;2.38;;
52534;SDS011;38443;53.164;5.802;2023-05-23T14:45:33;9.32;;;2.70;;
52534;SDS011;38443;53.164;5.802;2023-05-23T14:47:58;14.65;;;3.08;;
52534;SDS011;38443;53.164;5.802;2023-05-23T14:50:26;7.22;;;2.70;;
52534;SDS011;38443;53.164;5.802;2023-05-23T14:52:52;10.75;;;3.03;;
52534;SDS011;38443;53.164;5.802;2023-05-23T14:55:18;9.48;;;2.40;;
52534;SDS011;38443;53.164;5.802;2023-05-23T14:57:43;10.25;;;3.38;;
52534;SDS011;38443;53.164;5.802;2023-05-23T15:00:09;5.10;;;2.85;;
52534;SDS011;38443;53.164;5.802;2023-05-23T15:02:35;6.95;;;2.25;;
52534;SDS011;38443;53.164;5.802;2023-05-23T15:05:02;4.97;;;2.28;;
52534;SDS011;38443;53.164;5.802;2023-05-23T15:07:28;10.55;;;2.58;;
52534;SDS011;38443;53.164;5.802;2023-05-23T15:09:54;6.45;;;2.13;;
52534;SDS011;38443;53.164;5.802;2023-05-23T15:12:20;8.68;;;2.35;;
52534;SDS011;38443;53.164;5.802;2023-05-23T15:14:46;4.30;;;2.15;;
52534;SDS011;38443;53.164;5.802;2023-05-23T15:17:11;11.45;;;2.75;;
52534;SDS011;38443;53.164;5.802;2023-05-23T15:19:37;7.80;;;2.40;;
52534;SDS011;38443;53.164;5.802;2023-05-23T15:22:06;6.57;;;2.33;;
52534;SDS011;38443;53.164;5.802;2023-05-23T15:24:32;9.68;;;3.20;;
52534;SDS011;38443;53.164;5.802;2023-05-23T15:26:57;11.02;;;2.53;;
52534;SDS011;38443;53.164;5.802;2023-05-23T15:29:22;7.95;;;2.70;;
52534;SDS011;38443;53.164;5.802;2023-05-23T15:31:49;9.02;;;2.47;;
52534;SDS011;38443;53.164;5.802;2023-05-23T15:34:15;8.73;;;3.05;;
52534;SDS011;38443;53.164;5.802;2023-05-23T15:36:43;10.85;;;3.13;;
52534;SDS011;38443;53.164;5.802;2023-05-23T15:39:09;9.25;;;2.72;;